sensor_id;sensor_type;location;lat;lon;timestamp;P1;durP1;ratioP1;P2;durP2;ratioP2
11245;SDS011;59870;50.106;8.580;2023-06-10T00:02:11;8.23;;;7.63;;
11245;SDS011;59870;50.106;8.580;2023-06-10T00:04:39;9.10;;;8.30;;
11245;SDS011;59870;50.106;8.580;2023-06-10T00:07:06;7.90;;;7.30;;
11245;SDS011;59870;50.106;8.580;2023-06-10T00:09:36;9.00;;;7.17;;
11245;SDS011;59870;50.106;8.580;2023-06-10T00:12:08;10.57;;;7.20;;
11245;SDS011;59870;50.106;8.580;2023-06-10T00:14:39;8.57;;;7.87;;
11245;SDS011;59870;50.106;8.580;2023-06-10T00:17:07;9.07;;;8.17;;
11245;SDS011;59870;50.106;8.580;2023-06-10T00:19:37;7.97;;;7.37;;
11245;SDS011;59870;50.106;8.580;2023-06-10T00:22:08;8.00;;;7.40;;
11245;SDS011;59870;50.106;8.580;2023-06-10T00:24:37;7.80;;;7.23;;
11245;SDS011;59870;50.106;8.580;2023-06-10T00:27:05;8.37;;;7.70;;
11245;SDS011;59870;50.106;8.580;2023-06-10T00:29:34;7.83;;;7.33;;
11245;SDS011;59870;50.106;8.580;2023-06-10T00:32:01;8.40;;;7.80;;
11245;SDS011;59870;50.106;8.580;2023-06-10T00:34:30;7.47;;;6.80;;
11245;SDS011;59870;50.106;8.580;2023-06-10T00:36:57;8.63;;;8.03;;
11245;SDS011;59870;50.106;8.580;2023-06-10T00:39:25;8.50;;;7.80;;
11245;SDS011;59870;50.106;8.580;2023-06-10T00:41:52;7.53;;;6.93;;
11245;SDS011;59870;50.106;8.580;2023-06-10T00:44:20;8.77;;;7.90;;
11245;SDS011;59870;50.106;8.580;2023-06-10T00:46:47;8.00;;;7.33;;
11245;SDS011;59870;50.106;8.580;2023-06-10T00:49:18;8.23;;;7.63;;
11245;SDS011;59870;50.106;8.580;2023-06-10T00:51:45;8.30;;;7.70;;
11245;SDS011;59870;50.106;8.580;2023-06-10T00:54:14;8.17;;;7.50;;
11245;SDS011;59870;50.106;8.580;2023-06-10T00:56:42;8.80;;;7.73;;
11245;SDS011;59870;50.106;8.580;2023-06-10T00:59:10;8.10;;;7.53;;
11245;SDS011;59870;50.106;8.580;2023-06-10T01:01:38;8.00;;;7.50;;
11245;SDS011;59870;50.106;8.580;2023-06-10T01:04:06;8.80;;;8.07;;
11245;SDS011;59870;50.106;8.580;2023-06-10T01:09:33;8.57;;;7.87;;
11245;SDS011;59870;50.106;8.580;2023-06-10T01:12:24;7.70;;;7.10;;
11245;SDS011;59870;50.106;8.580;2023-06-10T01:15:20;7.87;;;7.17;;
11245;SDS011;59870;50.106;8.580;2023-06-10T01:17:55;8.10;;;7.50;;
11245;SDS011;59870;50.106;8.580;2023-06-10T01:20:37;8.57;;;7.80;;
11245;SDS011;59870;50.106;8.580;2023-06-10T01:23:07;8.47;;;7.77;;
11245;SDS011;59870;50.106;8.580;2023-06-10T01:25:36;8.07;;;7.47;;
11245;SDS011;59870;50.106;8.580;2023-06-10T01:33:49;8.47;;;7.87;;
11245;SDS011;59870;50.106;8.580;2023-06-10T01:36:19;8.63;;;7.83;;
11245;SDS011;59870;50.106;8.580;2023-06-10T01:38:49;8.00;;;7.17;;
11245;SDS011;59870;50.106;8.580;2023-06-10T01:41:19;8.50;;;7.77;;
11245;SDS011;59870;50.106;8.580;2023-06-10T01:43:48;9.13;;;7.87;;
11245;SDS011;59870;50.106;8.580;2023-06-10T01:46:16;8.03;;;7.43;;
11245;SDS011;59870;50.106;8.580;2023-06-10T01:48:47;8.17;;;7.63;;
11245;SDS011;59870;50.106;8.580;2023-06-10T01:51:15;7.97;;;7.40;;
11245;SDS011;59870;50.106;8.580;2023-06-10T01:53:43;7.67;;;7.07;;
11245;SDS011;59870;50.106;8.580;2023-06-10T01:56:10;8.20;;;7.50;;
11245;SDS011;59870;50.106;8.580;2023-06-10T01:58:43;7.67;;;6.87;;
11245;SDS011;59870;50.106;8.580;2023-06-10T02:01:11;8.13;;;6.80;;
11245;SDS011;59870;50.106;8.580;2023-06-10T02:03:39;9.23;;;8.50;;
11245;SDS011;59870;50.106;8.580;2023-06-10T02:06:08;8.30;;;7.50;;
11245;SDS011;59870;50.106;8.580;2023-06-10T02:08:35;7.67;;;7.07;;
11245;SDS011;59870;50.106;8.580;2023-06-10T02:11:03;8.30;;;7.70;;
11245;SDS011;59870;50.106;8.580;2023-06-10T02:13:31;8.00;;;7.30;;
11245;SDS011;59870;50.106;8.580;2023-06-10T02:15:58;8.37;;;7.30;;
11245;SDS011;59870;50.106;8.580;2023-06-10T02:18:28;8.33;;;7.63;;
11245;SDS011;59870;50.106;8.580;2023-06-10T02:20:56;7.97;;;7.37;;
11245;SDS011;59870;50.106;8.580;2023-06-10T02:23:25;7.90;;;7.20;;
11245;SDS011;59870;50.106;8.580;2023-06-10T02:25:53;7.50;;;7.00;;
11245;SDS011;59870;50.106;8.580;2023-06-10T02:28:24;7.60;;;7.03;;
11245;SDS011;59870;50.106;8.580;2023-06-10T02:30:52;7.83;;;7.33;;
11245;SDS011;59870;50.106;8.580;2023-06-10T02:33:20;8.47;;;7.90;;
11245;SDS011;59870;50.106;8.580;2023-06-10T02:35:48;8.43;;;7.73;;
11245;SDS011;59870;50.106;8.580;2023-06-10T02:38:16;8.40;;;7.70;;
11245;SDS011;59870;50.106;8.580;2023-06-10T02:40:44;8.37;;;7.70;;
11245;SDS011;59870;50.106;8.580;2023-06-10T02:43:12;8.27;;;7.47;;
11245;SDS011;59870;50.106;8.580;2023-06-10T02:45:40;7.80;;;7.20;;
11245;SDS011;59870;50.106;8.580;2023-06-10T02:48:08;7.97;;;7.27;;
11245;SDS011;59870;50.106;8.580;2023-06-10T02:50:36;8.60;;;7.90;;
11245;SDS011;59870;50.106;8.580;2023-06-10T02:53:28;7.77;;;7.07;;
11245;SDS011;59870;50.106;8.580;2023-06-10T02:56:03;7.50;;;7.00;;
11245;SDS011;59870;50.106;8.580;2023-06-10T02:58:31;8.37;;;7.67;;
11245;SDS011;59870;50.106;8.580;2023-06-10T03:00:59;7.03;;;6.53;;
11245;SDS011;59870;50.106;8.580;2023-06-10T03:03:32;11.33;;;7.23;;
11245;SDS011;59870;50.106;8.580;2023-06-10T03:06:06;7.77;;;7.27;;
11245;SDS011;59870;50.106;8.580;2023-06-10T03:08:36;8.50;;;7.13;;
11245;SDS011;59870;50.106;8.580;2023-06-10T03:11:08;9.10;;;7.00;;
11245;SDS011;59870;50.106;8.580;2023-06-10T03:13:38;8.57;;;7.87;;
11245;SDS011;59870;50.106;8.580;2023-06-10T03:16:09;7.80;;;7.23;;
11245;SDS011;59870;50.106;8.580;2023-06-10T03:18:37;8.60;;;7.30;;
11245;SDS011;59870;50.106;8.580;2023-06-10T03:21:05;8.30;;;7.53;;
11245;SDS011;59870;50.106;8.580;2023-06-10T03:23:32;8.50;;;7.60;;
11245;SDS011;59870;50.106;8.580;2023-06-10T03:26:01;7.77;;;6.93;;
11245;SDS011;59870;50.106;8.580;2023-06-10T03:28:31;7.80;;;7.17;;
11245;SDS011;59870;50.106;8.580;2023-06-10T03:30:58;7.03;;;6.60;;
11245;SDS011;59870;50.106;8.580;2023-06-10T03:33:27;8.37;;;7.47;;
11245;SDS011;59870;50.106;8.580;2023-06-10T03:35:54;8.20;;;7.60;;
11245;SDS011;59870;50.106;8.580;2023-06-10T03:38:23;9.17;;;8.20;;
11245;SDS011;59870;50.106;8.580;2023-06-10T03:40:52;7.40;;;6.93;;
11245;SDS011;59870;50.106;8.580;2023-06-10T03:43:19;7.07;;;6.43;;
11245;SDS011;59870;50.106;8.580;2023-06-10T03:45:47;8.00;;;7.27;;
11245;SDS011;59870;50.106;8.580;2023-06-10T03:48:16;7.50;;;6.90;;
11245;SDS011;59870;50.106;8.580;2023-06-10T03:50:48;10.43;;;7.77;;
11245;SDS011;59870;50.106;8.580;2023-06-10T03:53:17;8.57;;;6.93;;
11245;SDS011;59870;50.106;8.580;2023-06-10T03:55:46;7.93;;;7.30;;
11245;SDS011;59870;50.106;8.580;2023-06-10T03:58:15;7.77;;;7.20;;
11245;SDS011;59870;50.106;8.580;2023-06-10T04:00:44;7.97;;;7.33;;
11245;SDS011;59870;50.106;8.580;2023-06-10T04:03:12;8.13;;;7.57;;
11245;SDS011;59870;50.106;8.580;2023-06-10T04:05:45;7.53;;;6.97;;
11245;SDS011;59870;50.106;8.580;2023-06-10T04:08:12;7.60;;;6.97;;
11245;SDS011;59870;50.106;8.580;2023-06-10T04:10:40;8.00;;;7.30;;
11245;SDS011;59870;50.106;8.580;2023-06-10T04:13:07;7.87;;;7.27;;
11245;SDS011;59870;50.106;8.580;2023-06-10T04:15:40;7.80;;;7.23;;
11245;SDS011;59870;50.106;8.580;2023-06-10T04:18:12;7.70;;;7.20;;
11245;SDS011;59870;50.106;8.580;2023-06-10T04:20:40;8.00;;;7.20;;
11245;SDS011;59870;50.106;8.580;2023-06-10T04:23:07;7.93;;;7.20;;
11245;SDS011;59870;50.106;8.580;2023-06-10T04:25:35;8.00;;;7.33;;
11245;SDS011;59870;50.106;8.580;2023-06-10T04:28:03;8.53;;;7.73;;
11245;SDS011;59870;50.106;8.580;2023-06-10T04:30:31;7.27;;;6.77;;
11245;SDS011;59870;50.106;8.580;2023-06-10T04:32:58;7.07;;;6.57;;
11245;SDS011;59870;50.106;8.580;2023-06-10T04:35:27;7.40;;;6.70;;
11245;SDS011;59870;50.106;8.580;2023-06-10T04:37:57;7.17;;;6.60;;
11245;SDS011;59870;50.106;8.580;2023-06-10T04:40:25;7.70;;;7.10;;
11245;SDS011;59870;50.106;8.580;2023-06-10T04:42:53;7.50;;;6.80;;
11245;SDS011;59870;50.106;8.580;2023-06-10T04:45:21;7.40;;;6.80;;
11245;SDS011;59870;50.106;8.580;2023-06-10T04:47:48;7.60;;;7.00;;
11245;SDS011;59870;50.106;8.580;2023-06-10T04:50:16;10.30;;;6.67;;
11245;SDS011;59870;50.106;8.580;2023-06-10T04:52:43;7.03;;;6.40;;
11245;SDS011;59870;50.106;8.580;2023-06-10T04:55:12;7.47;;;6.97;;
11245;SDS011;59870;50.106;8.580;2023-06-10T04:57:40;8.73;;;7.60;;
11245;SDS011;59870;50.106;8.580;2023-06-10T05:00:07;6.97;;;6.33;;
11245;SDS011;59870;50.106;8.580;2023-06-10T05:02:35;8.53;;;6.67;;
11245;SDS011;59870;50.106;8.580;2023-06-10T05:05:03;7.83;;;7.13;;
11245;SDS011;59870;50.106;8.580;2023-06-10T05:07:30;7.17;;;6.67;;
11245;SDS011;59870;50.106;8.580;2023-06-10T05:09:57;7.90;;;7.30;;
11245;SDS011;59870;50.106;8.580;2023-06-10T05:12:25;7.40;;;6.90;;
11245;SDS011;59870;50.106;8.580;2023-06-10T05:14:53;7.00;;;6.40;;
11245;SDS011;59870;50.106;8.580;2023-06-10T05:17:20;7.30;;;6.73;;
11245;SDS011;59870;50.106;8.580;2023-06-10T05:19:47;7.40;;;6.77;;
11245;SDS011;59870;50.106;8.580;2023-06-10T05:22:15;7.10;;;6.50;;
11245;SDS011;59870;50.106;8.580;2023-06-10T05:24:43;6.80;;;6.30;;
11245;SDS011;59870;50.106;8.580;2023-06-10T05:27:11;7.63;;;6.93;;
11245;SDS011;59870;50.106;8.580;2023-06-10T05:29:38;6.47;;;6.07;;
11245;SDS011;59870;50.106;8.580;2023-06-10T05:32:07;6.43;;;6.03;;
11245;SDS011;59870;50.106;8.580;2023-06-10T05:34:35;5.63;;;5.33;;
11245;SDS011;59870;50.106;8.580;2023-06-10T05:37:02;6.43;;;5.83;;
11245;SDS011;59870;50.106;8.580;2023-06-10T05:39:30;6.30;;;5.90;;
11245;SDS011;59870;50.106;8.580;2023-06-10T05:41:58;6.50;;;6.10;;
11245;SDS011;59870;50.106;8.580;2023-06-10T05:44:26;6.03;;;5.63;;
11245;SDS011;59870;50.106;8.580;2023-06-10T05:46:53;7.03;;;6.43;;
11245;SDS011;59870;50.106;8.580;2023-06-10T05:49:21;6.10;;;5.63;;
11245;SDS011;59870;50.106;8.580;2023-06-10T05:51:48;6.20;;;5.90;;
11245;SDS011;59870;50.106;8.580;2023-06-10T05:54:16;7.03;;;6.37;;
11245;SDS011;59870;50.106;8.580;2023-06-10T05:56:43;6.57;;;6.07;;
11245;SDS011;59870;50.106;8.580;2023-06-10T05:59:11;6.93;;;6.43;;
11245;SDS011;59870;50.106;8.580;2023-06-10T06:01:39;6.43;;;5.93;;
11245;SDS011;59870;50.106;8.580;2023-06-10T06:04:06;6.83;;;6.03;;
11245;SDS011;59870;50.106;8.580;2023-06-10T06:06:34;7.13;;;6.53;;
11245;SDS011;59870;50.106;8.580;2023-06-10T06:09:05;6.00;;;5.60;;
11245;SDS011;59870;50.106;8.580;2023-06-10T06:11:33;6.70;;;6.13;;
11245;SDS011;59870;50.106;8.580;2023-06-10T06:14:01;6.60;;;5.60;;
11245;SDS011;59870;50.106;8.580;2023-06-10T06:16:29;5.90;;;5.50;;
11245;SDS011;59870;50.106;8.580;2023-06-10T06:18:57;7.33;;;5.97;;
11245;SDS011;59870;50.106;8.580;2023-06-10T06:21:24;6.07;;;5.60;;
11245;SDS011;59870;50.106;8.580;2023-06-10T06:23:52;6.37;;;5.73;;
11245;SDS011;59870;50.106;8.580;2023-06-10T06:26:20;6.53;;;5.80;;
11245;SDS011;59870;50.106;8.580;2023-06-10T06:28:48;6.53;;;6.03;;
11245;SDS011;59870;50.106;8.580;2023-06-10T06:31:15;6.93;;;5.60;;
11245;SDS011;59870;50.106;8.580;2023-06-10T06:33:43;6.47;;;6.03;;
11245;SDS011;59870;50.106;8.580;2023-06-10T06:36:11;7.80;;;5.53;;
11245;SDS011;59870;50.106;8.580;2023-06-10T06:38:38;5.80;;;5.30;;
11245;SDS011;59870;50.106;8.580;2023-06-10T06:41:05;6.43;;;5.80;;
11245;SDS011;59870;50.106;8.580;2023-06-10T06:43:33;5.90;;;5.40;;
11245;SDS011;59870;50.106;8.580;2023-06-10T06:46:15;5.57;;;5.17;;
11245;SDS011;59870;50.106;8.580;2023-06-10T06:48:44;6.72;;;5.72;;
11245;SDS011;59870;50.106;8.580;2023-06-10T06:51:12;6.07;;;5.55;;
11245;SDS011;59870;50.106;8.580;2023-06-10T06:53:39;6.45;;;5.55;;
11245;SDS011;59870;50.106;8.580;2023-06-10T06:56:11;5.65;;;5.15;;
11245;SDS011;59870;50.106;8.580;2023-06-10T06:58:39;5.43;;;5.03;;
11245;SDS011;59870;50.106;8.580;2023-06-10T07:01:06;5.73;;;5.33;;
11245;SDS011;59870;50.106;8.580;2023-06-10T07:03:34;6.32;;;5.80;;
11245;SDS011;59870;50.106;8.580;2023-06-10T07:06:01;6.60;;;5.97;;
11245;SDS011;59870;50.106;8.580;2023-06-10T07:08:29;5.90;;;5.50;;
11245;SDS011;59870;50.106;8.580;2023-06-10T07:10:56;5.72;;;5.32;;
11245;SDS011;59870;50.106;8.580;2023-06-10T07:13:24;6.38;;;5.88;;
11245;SDS011;59870;50.106;8.580;2023-06-10T07:15:51;6.05;;;5.65;;
11245;SDS011;59870;50.106;8.580;2023-06-10T07:18:19;6.63;;;6.03;;
11245;SDS011;59870;50.106;8.580;2023-06-10T07:20:46;6.30;;;5.80;;
11245;SDS011;59870;50.106;8.580;2023-06-10T07:23:14;6.20;;;5.80;;
11245;SDS011;59870;50.106;8.580;2023-06-10T07:25:41;8.68;;;5.97;;
11245;SDS011;59870;50.106;8.580;2023-06-10T07:28:09;6.38;;;5.80;;
11245;SDS011;59870;50.106;8.580;2023-06-10T07:30:36;5.75;;;5.25;;
11245;SDS011;59870;50.106;8.580;2023-06-10T07:33:04;5.43;;;5.03;;
11245;SDS011;59870;50.106;8.580;2023-06-10T07:35:34;6.05;;;5.32;;
11245;SDS011;59870;50.106;8.580;2023-06-10T07:38:02;6.60;;;5.97;;
11245;SDS011;59870;50.106;8.580;2023-06-10T07:40:29;6.65;;;6.15;;
11245;SDS011;59870;50.106;8.580;2023-06-10T07:43:01;5.95;;;5.55;;
11245;SDS011;59870;50.106;8.580;2023-06-10T07:45:28;5.90;;;5.50;;
11245;SDS011;59870;50.106;8.580;2023-06-10T07:47:55;6.57;;;6.07;;
11245;SDS011;59870;50.106;8.580;2023-06-10T07:50:24;6.23;;;5.77;;
11245;SDS011;59870;50.106;8.580;2023-06-10T07:52:51;6.03;;;5.63;;
11245;SDS011;59870;50.106;8.580;2023-06-10T07:55:18;6.43;;;5.95;;
11245;SDS011;59870;50.106;8.580;2023-06-10T07:57:46;6.63;;;6.00;;
11245;SDS011;59870;50.106;8.580;2023-06-10T08:00:14;6.20;;;5.72;;
11245;SDS011;59870;50.106;8.580;2023-06-10T08:02:42;6.20;;;5.55;;
11245;SDS011;59870;50.106;8.580;2023-06-10T08:05:09;6.63;;;5.90;;
11245;SDS011;59870;50.106;8.580;2023-06-10T08:07:38;8.43;;;6.55;;
11245;SDS011;59870;50.106;8.580;2023-06-10T08:10:06;6.20;;;5.70;;
11245;SDS011;59870;50.106;8.580;2023-06-10T08:12:34;6.10;;;5.57;;
11245;SDS011;59870;50.106;8.580;2023-06-10T08:15:02;6.70;;;6.10;;
11245;SDS011;59870;50.106;8.580;2023-06-10T08:17:30;6.95;;;6.45;;
11245;SDS011;59870;50.106;8.580;2023-06-10T08:19:58;6.72;;;6.32;;
11245;SDS011;59870;50.106;8.580;2023-06-10T08:22:26;6.22;;;5.82;;
11245;SDS011;59870;50.106;8.580;2023-06-10T08:24:53;6.88;;;6.10;;
11245;SDS011;59870;50.106;8.580;2023-06-10T08:27:21;6.53;;;6.03;;
11245;SDS011;59870;50.106;8.580;2023-06-10T08:29:48;6.07;;;5.57;;
11245;SDS011;59870;50.106;8.580;2023-06-10T08:32:16;6.95;;;6.35;;
11245;SDS011;59870;50.106;8.580;2023-06-10T08:34:44;6.28;;;5.75;;
11245;SDS011;59870;50.106;8.580;2023-06-10T08:37:11;7.22;;;5.70;;
11245;SDS011;59870;50.106;8.580;2023-06-10T08:39:39;10.77;;;5.72;;
11245;SDS011;59870;50.106;8.580;2023-06-10T08:42:10;7.13;;;6.43;;
11245;SDS011;59870;50.106;8.580;2023-06-10T08:44:46;6.30;;;5.70;;
11245;SDS011;59870;50.106;8.580;2023-06-10T08:47:16;6.35;;;5.88;;
11245;SDS011;59870;50.106;8.580;2023-06-10T08:49:45;6.82;;;6.00;;
11245;SDS011;59870;50.106;8.580;2023-06-10T08:52:15;6.40;;;6.00;;
11245;SDS011;59870;50.106;8.580;2023-06-10T08:54:49;6.22;;;5.68;;
11245;SDS011;59870;50.106;8.580;2023-06-10T08:57:21;6.03;;;5.63;;
11245;SDS011;59870;50.106;8.580;2023-06-10T08:59:50;6.47;;;6.00;;
11245;SDS011;59870;50.106;8.580;2023-06-10T09:02:18;5.78;;;5.38;;
11245;SDS011;59870;50.106;8.580;2023-06-10T09:04:47;6.35;;;5.78;;
11245;SDS011;59870;50.106;8.580;2023-06-10T09:07:16;5.65;;;5.18;;
11245;SDS011;59870;50.106;8.580;2023-06-10T09:09:44;6.05;;;5.65;;
11245;SDS011;59870;50.106;8.580;2023-06-10T09:12:13;6.68;;;6.00;;
11245;SDS011;59870;50.106;8.580;2023-06-10T09:14:41;5.97;;;5.45;;
11245;SDS011;59870;50.106;8.580;2023-06-10T09:17:08;6.70;;;5.72;;
11245;SDS011;59870;50.106;8.580;2023-06-10T09:19:37;6.60;;;6.13;;
11245;SDS011;59870;50.106;8.580;2023-06-10T09:22:05;9.98;;;6.03;;
11245;SDS011;59870;50.106;8.580;2023-06-10T09:24:33;5.93;;;5.47;;
11245;SDS011;59870;50.106;8.580;2023-06-10T09:27:07;6.50;;;5.90;;
11245;SDS011;59870;50.106;8.580;2023-06-10T09:29:46;5.45;;;5.05;;
11245;SDS011;59870;50.106;8.580;2023-06-10T09:32:15;5.82;;;5.25;;
11245;SDS011;59870;50.106;8.580;2023-06-10T09:34:45;6.53;;;6.03;;
11245;SDS011;59870;50.106;8.580;2023-06-10T09:37:19;5.93;;;5.53;;
11245;SDS011;59870;50.106;8.580;2023-06-10T09:40:01;5.97;;;5.53;;
11245;SDS011;59870;50.106;8.580;2023-06-10T09:42:33;5.28;;;4.78;;
11245;SDS011;59870;50.106;8.580;2023-06-10T09:45:03;5.63;;;5.22;;
11245;SDS011;59870;50.106;8.580;2023-06-10T09:47:31;6.13;;;5.68;;
11245;SDS011;59870;50.106;8.580;2023-06-10T09:49:59;5.55;;;5.15;;
11245;SDS011;59870;50.106;8.580;2023-06-10T09:52:28;5.70;;;5.30;;
11245;SDS011;59870;50.106;8.580;2023-06-10T09:55:00;5.50;;;5.10;;
11245;SDS011;59870;50.106;8.580;2023-06-10T09:57:31;5.57;;;5.20;;
11245;SDS011;59870;50.106;8.580;2023-06-10T10:00:10;6.10;;;5.60;;
11245;SDS011;59870;50.106;8.580;2023-06-10T10:02:48;6.28;;;5.88;;
11245;SDS011;59870;50.106;8.580;2023-06-10T10:05:20;5.80;;;5.47;;
11245;SDS011;59870;50.106;8.580;2023-06-10T10:07:49;6.38;;;5.47;;
11245;SDS011;59870;50.106;8.580;2023-06-10T10:10:19;6.20;;;5.78;;
11245;SDS011;59870;50.106;8.580;2023-06-10T10:12:48;5.85;;;5.18;;
11245;SDS011;59870;50.106;8.580;2023-06-10T10:15:18;7.10;;;4.65;;
11245;SDS011;59870;50.106;8.580;2023-06-10T10:17:48;6.10;;;5.65;;
11245;SDS011;59870;50.106;8.580;2023-06-10T10:20:20;5.22;;;4.90;;
11245;SDS011;59870;50.106;8.580;2023-06-10T10:22:52;6.13;;;5.25;;
11245;SDS011;59870;50.106;8.580;2023-06-10T10:25:38;5.80;;;5.30;;
11245;SDS011;59870;50.106;8.580;2023-06-10T10:28:10;5.55;;;5.13;;
11245;SDS011;59870;50.106;8.580;2023-06-10T10:30:42;5.45;;;5.05;;
11245;SDS011;59870;50.106;8.580;2023-06-10T10:33:17;5.60;;;5.28;;
11245;SDS011;59870;50.106;8.580;2023-06-10T10:35:47;5.47;;;5.07;;
11245;SDS011;59870;50.106;8.580;2023-06-10T10:38:15;6.55;;;5.60;;
11245;SDS011;59870;50.106;8.580;2023-06-10T10:40:43;5.50;;;5.10;;
11245;SDS011;59870;50.106;8.580;2023-06-10T10:43:13;5.38;;;4.90;;
11245;SDS011;59870;50.106;8.580;2023-06-10T10:45:41;5.45;;;4.97;;
11245;SDS011;59870;50.106;8.580;2023-06-10T10:48:08;5.38;;;4.97;;
11245;SDS011;59870;50.106;8.580;2023-06-10T10:50:40;6.00;;;5.60;;
11245;SDS011;59870;50.106;8.580;2023-06-10T10:53:07;5.05;;;4.60;;
11245;SDS011;59870;50.106;8.580;2023-06-10T10:55:35;6.38;;;5.53;;
11245;SDS011;59870;50.106;8.580;2023-06-10T10:58:06;6.03;;;5.47;;
11245;SDS011;59870;50.106;8.580;2023-06-10T11:00:38;5.55;;;5.20;;
11245;SDS011;59870;50.106;8.580;2023-06-10T11:03:15;11.40;;;5.45;;
11245;SDS011;59870;50.106;8.580;2023-06-10T11:05:47;5.90;;;5.50;;
11245;SDS011;59870;50.106;8.580;2023-06-10T11:10:56;5.13;;;4.72;;
11245;SDS011;59870;50.106;8.580;2023-06-10T11:13:23;5.13;;;4.68;;
11245;SDS011;59870;50.106;8.580;2023-06-10T11:15:57;7.15;;;5.00;;
11245;SDS011;59870;50.106;8.580;2023-06-10T11:20:57;5.20;;;4.90;;
11245;SDS011;59870;50.106;8.580;2023-06-10T11:31:28;5.13;;;4.63;;
11245;SDS011;59870;50.106;8.580;2023-06-10T11:34:04;5.30;;;4.30;;
11245;SDS011;59870;50.106;8.580;2023-06-10T11:36:34;4.55;;;4.18;;
11245;SDS011;59870;50.106;8.580;2023-06-10T11:39:09;5.18;;;4.82;;
11245;SDS011;59870;50.106;8.580;2023-06-10T11:41:37;7.97;;;4.40;;
11245;SDS011;59870;50.106;8.580;2023-06-10T11:44:09;4.93;;;4.63;;
11245;SDS011;59870;50.106;8.580;2023-06-10T11:46:41;4.47;;;4.18;;
11245;SDS011;59870;50.106;8.580;2023-06-10T11:49:12;5.85;;;4.38;;
11245;SDS011;59870;50.106;8.580;2023-06-10T11:51:40;4.82;;;4.43;;
11245;SDS011;59870;50.106;8.580;2023-06-10T11:54:15;4.75;;;4.45;;
11245;SDS011;59870;50.106;8.580;2023-06-10T11:56:44;7.32;;;4.95;;
11245;SDS011;59870;50.106;8.580;2023-06-10T11:59:11;5.68;;;4.45;;
11245;SDS011;59870;50.106;8.580;2023-06-10T12:01:43;4.82;;;4.53;;
11245;SDS011;59870;50.106;8.580;2023-06-10T12:04:15;4.50;;;4.10;;
11245;SDS011;59870;50.106;8.580;2023-06-10T12:06:52;5.00;;;4.68;;
11245;SDS011;59870;50.106;8.580;2023-06-10T12:09:21;5.20;;;4.80;;
11245;SDS011;59870;50.106;8.580;2023-06-10T12:12:07;8.18;;;4.40;;
11245;SDS011;59870;50.106;8.580;2023-06-10T12:14:54;5.00;;;4.70;;
11245;SDS011;59870;50.106;8.580;2023-06-10T12:17:35;6.07;;;4.95;;
11245;SDS011;59870;50.106;8.580;2023-06-10T12:20:08;5.20;;;4.90;;
11245;SDS011;59870;50.106;8.580;2023-06-10T12:22:51;5.10;;;4.70;;
11245;SDS011;59870;50.106;8.580;2023-06-10T12:25:23;5.43;;;4.97;;
11245;SDS011;59870;50.106;8.580;2023-06-10T12:27:53;10.40;;;4.43;;
11245;SDS011;59870;50.106;8.580;2023-06-10T12:30:23;4.97;;;4.55;;
11245;SDS011;59870;50.106;8.580;2023-06-10T12:32:53;5.43;;;5.10;;
11245;SDS011;59870;50.106;8.580;2023-06-10T12:35:23;4.72;;;4.32;;
11245;SDS011;59870;50.106;8.580;2023-06-10T12:37:59;5.45;;;4.90;;
11245;SDS011;59870;50.106;8.580;2023-06-10T12:42:56;4.80;;;4.50;;
11245;SDS011;59870;50.106;8.580;2023-06-10T12:45:32;5.05;;;4.65;;
11245;SDS011;59870;50.106;8.580;2023-06-10T12:48:07;5.38;;;4.97;;
11245;SDS011;59870;50.106;8.580;2023-06-10T12:50:37;5.43;;;4.82;;
11245;SDS011;59870;50.106;8.580;2023-06-10T12:53:07;5.43;;;5.03;;
11245;SDS011;59870;50.106;8.580;2023-06-10T12:55:35;5.40;;;5.00;;
11245;SDS011;59870;50.106;8.580;2023-06-10T12:58:03;4.32;;;4.13;;
11245;SDS011;59870;50.106;8.580;2023-06-10T13:00:31;5.55;;;5.25;;
11245;SDS011;59870;50.106;8.580;2023-06-10T13:03:02;6.35;;;4.88;;
11245;SDS011;59870;50.106;8.580;2023-06-10T13:05:32;5.10;;;4.70;;
11245;SDS011;59870;50.106;8.580;2023-06-10T13:08:00;5.82;;;5.30;;
11245;SDS011;59870;50.106;8.580;2023-06-10T13:10:27;5.15;;;4.82;;
11245;SDS011;59870;50.106;8.580;2023-06-10T13:12:55;5.53;;;5.13;;
11245;SDS011;59870;50.106;8.580;2023-06-10T13:15:22;5.43;;;5.03;;
11245;SDS011;59870;50.106;8.580;2023-06-10T13:17:50;6.80;;;5.18;;
11245;SDS011;59870;50.106;8.580;2023-06-10T13:20:18;5.93;;;5.28;;
11245;SDS011;59870;50.106;8.580;2023-06-10T13:22:47;7.20;;;4.85;;
11245;SDS011;59870;50.106;8.580;2023-06-10T13:25:16;5.10;;;4.80;;
11245;SDS011;59870;50.106;8.580;2023-06-10T13:27:43;5.10;;;4.70;;
11245;SDS011;59870;50.106;8.580;2023-06-10T13:30:11;4.88;;;4.57;;
11245;SDS011;59870;50.106;8.580;2023-06-10T13:32:38;4.78;;;4.47;;
11245;SDS011;59870;50.106;8.580;2023-06-10T13:35:06;6.43;;;5.68;;
11245;SDS011;59870;50.106;8.580;2023-06-10T13:37:35;7.07;;;5.25;;
11245;SDS011;59870;50.106;8.580;2023-06-10T13:40:03;5.05;;;4.75;;
11245;SDS011;59870;50.106;8.580;2023-06-10T13:42:31;7.28;;;6.10;;
11245;SDS011;59870;50.106;8.580;2023-06-10T13:44:58;5.38;;;4.90;;
11245;SDS011;59870;50.106;8.580;2023-06-10T13:47:26;5.35;;;4.95;;
11245;SDS011;59870;50.106;8.580;2023-06-10T13:49:53;5.45;;;4.97;;
11245;SDS011;59870;50.106;8.580;2023-06-10T13:52:21;5.55;;;5.13;;
11245;SDS011;59870;50.106;8.580;2023-06-10T13:54:48;5.35;;;5.00;;
11245;SDS011;59870;50.106;8.580;2023-06-10T13:57:16;5.90;;;5.50;;
11245;SDS011;59870;50.106;8.580;2023-06-10T13:59:44;4.78;;;4.10;;
11245;SDS011;59870;50.106;8.580;2023-06-10T14:02:11;10.70;;;5.35;;
11245;SDS011;59870;50.106;8.580;2023-06-10T14:04:39;4.88;;;4.57;;
11245;SDS011;59870;50.106;8.580;2023-06-10T14:07:06;4.20;;;4.00;;
11245;SDS011;59870;50.106;8.580;2023-06-10T14:09:34;5.10;;;4.43;;
11245;SDS011;59870;50.106;8.580;2023-06-10T14:12:01;4.40;;;4.10;;
11245;SDS011;59870;50.106;8.580;2023-06-10T14:14:30;4.63;;;3.72;;
11245;SDS011;59870;50.106;8.580;2023-06-10T14:16:59;4.70;;;3.90;;
11245;SDS011;59870;50.106;8.580;2023-06-10T14:19:27;4.90;;;4.60;;
11245;SDS011;59870;50.106;8.580;2023-06-10T14:21:54;4.32;;;4.03;;
11245;SDS011;59870;50.106;8.580;2023-06-10T14:24:22;4.38;;;4.07;;
11245;SDS011;59870;50.106;8.580;2023-06-10T14:26:50;5.00;;;4.53;;
11245;SDS011;59870;50.106;8.580;2023-06-10T14:29:17;6.93;;;4.25;;
11245;SDS011;59870;50.106;8.580;2023-06-10T14:31:46;4.78;;;4.45;;
11245;SDS011;59870;50.106;8.580;2023-06-10T14:34:13;4.70;;;4.30;;
11245;SDS011;59870;50.106;8.580;2023-06-10T14:36:41;4.63;;;4.05;;
11245;SDS011;59870;50.106;8.580;2023-06-10T14:39:08;3.90;;;3.67;;
11245;SDS011;59870;50.106;8.580;2023-06-10T14:41:36;3.60;;;3.40;;
11245;SDS011;59870;50.106;8.580;2023-06-10T14:44:03;3.67;;;3.38;;
11245;SDS011;59870;50.106;8.580;2023-06-10T14:46:31;4.60;;;4.30;;
11245;SDS011;59870;50.106;8.580;2023-06-10T14:48:58;4.47;;;4.10;;
11245;SDS011;59870;50.106;8.580;2023-06-10T14:51:26;4.78;;;4.45;;
11245;SDS011;59870;50.106;8.580;2023-06-10T14:53:53;4.60;;;4.30;;
11245;SDS011;59870;50.106;8.580;2023-06-10T14:56:21;4.45;;;4.07;;
11245;SDS011;59870;50.106;8.580;2023-06-10T14:58:49;4.78;;;4.47;;
11245;SDS011;59870;50.106;8.580;2023-06-10T15:01:16;5.15;;;4.57;;
11245;SDS011;59870;50.106;8.580;2023-06-10T15:03:45;4.38;;;4.00;;
11245;SDS011;59870;50.106;8.580;2023-06-10T15:06:13;5.10;;;4.78;;
11245;SDS011;59870;50.106;8.580;2023-06-10T15:08:44;4.50;;;4.20;;
11245;SDS011;59870;50.106;8.580;2023-06-10T15:11:12;4.72;;;4.30;;
11245;SDS011;59870;50.106;8.580;2023-06-10T15:13:39;5.20;;;4.88;;
11245;SDS011;59870;50.106;8.580;2023-06-10T15:16:07;5.25;;;3.92;;
11245;SDS011;59870;50.106;8.580;2023-06-10T15:18:34;4.63;;;4.13;;
11245;SDS011;59870;50.106;8.580;2023-06-10T15:21:02;4.28;;;3.97;;
11245;SDS011;59870;50.106;8.580;2023-06-10T15:23:29;4.85;;;4.55;;
11245;SDS011;59870;50.106;8.580;2023-06-10T15:25:57;5.50;;;4.72;;